TimePST,TemperatureF,Dew PointF,Humidity,Sea Level PressureIn,VisibilityMPH,Wind Direction,Wind SpeedMPH,Gust SpeedMPH,PrecipitationIn,Events,Conditions,WindDirDegrees,DateUTC
12:53 AM,39.9,35.1,83,29.91,10.0,NE,5.8,-,N/A,,Overcast,40,2012-11-17 08:53:00
1:53 AM,37.0,33.1,86,29.91,10.0,East,3.5,-,N/A,,Overcast,90,2012-11-17 09:53:00
2:53 AM,37.0,35.1,93,29.90,10.0,ENE,4.6,-,0.00,Rain,Light Rain,70,2012-11-17 10:53:00
3:53 AM,39.0,36.0,89,29.87,10.0,NE,5.8,-,0.00,,Overcast,40,2012-11-17 11:53:00
4:53 AM,39.0,36.0,89,29.87,10.0,East,3.5,-,N/A,,Overcast,80,2012-11-17 12:53:00
5:53 AM,37.0,35.1,93,29.86,10.0,East,3.5,-,N/A,,Overcast,100,2012-11-17 13:53:00
6:53 AM,37.9,36.0,93,29.87,7.0,ESE,4.6,-,0.02,Rain,Rain,110,2012-11-17 14:53:00
7:29 AM,39.2,37.4,93,29.85,6.0,ENE,4.6,-,0.09,Rain,Rain,70,2012-11-17 15:29:00
7:53 AM,39.0,37.9,96,29.86,5.0,ENE,5.8,-,0.13,Rain,Rain,70,2012-11-17 15:53:00
8:53 AM,39.9,39.0,97,29.84,4.0,ENE,4.6,-,0.10,Rain,Rain,60,2012-11-17 16:53:00
9:25 AM,39.2,37.4,93,29.81,5.0,ENE,6.9,-,0.05,Rain,Rain,70,2012-11-17 17:25:00
9:53 AM,41.0,39.0,93,29.81,6.0,NE,5.8,-,0.09,Rain,Light Rain,50,2012-11-17 17:53:00
10:53 AM,42.1,39.9,92,29.79,8.0,NE,6.9,-,0.09,Rain,Light Rain,50,2012-11-17 18:53:00
11:53 AM,44.1,42.1,93,29.75,10.0,ENE,5.8,-,0.02,Rain,Light Rain,70,2012-11-17 19:53:00
12:53 PM,46.0,43.0,89,29.73,8.0,East,4.6,-,0.01,Rain,Light Rain,80,2012-11-17 20:53:00
1:06 PM,46.4,44.6,93,29.73,10.0,ENE,4.6,-,0.00,Rain,Light Rain,70,2012-11-17 21:06:00
1:26 PM,46.4,44.6,93,29.72,10.0,NE,4.6,-,0.00,Rain,Light Rain,50,2012-11-17 21:26:00
1:53 PM,46.9,43.0,86,29.72,10.0,SSW,5.8,-,0.00,Rain,Light Rain,200,2012-11-17 21:53:00
2:53 PM,46.9,43.0,86,29.70,10.0,SE,6.9,-,N/A,,Overcast,130,2012-11-17 22:53:00
3:53 PM,46.9,42.1,83,29.69,10.0,ESE,11.5,-,0.00,,Overcast,120,2012-11-17 23:53:00
4:53 PM,45.0,39.9,82,29.68,10.0,SSE,16.1,20.7,0.00,,Partly Cloudy,150,2012-11-18 00:53:00
5:53 PM,45.0,39.0,80,29.69,10.0,SE,10.4,-,N/A,,Mostly Cloudy,140,2012-11-18 01:53:00
6:53 PM,42.1,39.0,89,29.69,10.0,Calm,Calm,-,N/A,,Mostly Cloudy,0,2012-11-18 02:53:00
7:53 PM,37.9,35.1,89,29.73,10.0,WSW,13.8,31.1,0.04,Rain,Light Rain,250,2012-11-18 03:53:00
8:19 PM,35.6,33.8,93,29.75,10.0,WSW,15.0,33.4,0.00,Rain,Light Rain,240,2012-11-18 04:19:00
8:48 PM,35.6,33.8,93,29.77,10.0,WSW,15.0,21.9,0.01,Rain,Light Rain,240,2012-11-18 04:48:00
8:53 PM,36.0,33.1,89,29.80,10.0,WSW,19.6,26.5,0.01,,Overcast,250,2012-11-18 04:53:00
9:07 PM,35.6,32.0,87,29.78,6.0,WSW,13.8,-,0.01,Snow,Light Snow,240,2012-11-18 05:07:00
9:53 PM,34.0,32.0,92,29.83,8.0,SW,6.9,-,0.03,Snow,Light Snow,230,2012-11-18 05:53:00
10:13 PM,33.8,32.0,93,29.81,9.0,SW,9.2,-,0.00,,Overcast,220,2012-11-18 06:13:00
10:53 PM,34.0,30.9,89,29.86,10.0,SW,11.5,-,0.00,,Overcast,230,2012-11-18 06:53:00
11:53 PM,33.1,28.9,85,29.90,10.0,SSW,10.4,-,N/A,,Mostly Cloudy,210,2012-11-18 07:53:00